createdAt,value
2022-08-07T00:00:56.942Z,0.93
2022-08-07T00:03:28.414Z,0.60
2022-08-07T00:06:05.510Z,1.13
2022-08-07T00:08:33.780Z,0.80
2022-08-07T00:11:02.961Z,0.85
2022-08-07T00:13:34.977Z,1.08
2022-08-07T00:16:12.320Z,0.90
2022-08-07T00:18:53.817Z,0.85
2022-08-07T00:21:56.396Z,1.15
2022-08-07T00:24:11.608Z,0.88
2022-08-07T00:26:49.593Z,0.88
2022-08-07T00:29:31.478Z,1.23
2022-08-07T00:31:59.956Z,0.70
2022-08-07T00:34:28.115Z,0.57
2022-08-07T00:36:56.740Z,0.90
2022-08-07T00:39:23.987Z,0.88
2022-08-07T00:42:01.974Z,0.57
2022-08-07T00:44:38.257Z,0.40
2022-08-07T00:48:05.415Z,1.23
2022-08-07T00:50:19.127Z,0.63
2022-08-07T00:52:43.349Z,1.00
2022-08-07T00:55:17.447Z,1.20
2022-08-07T00:57:55.779Z,0.88
2022-08-07T01:00:24.461Z,1.42
2022-08-07T01:02:54.847Z,0.95
2022-08-07T01:05:24.634Z,0.70
2022-08-07T01:07:52.043Z,1.40
2022-08-07T01:10:20.225Z,0.80
2022-08-07T01:12:54.042Z,1.10
2022-08-07T01:16:00.808Z,1.00
2022-08-07T01:18:16.968Z,1.02
2022-08-07T01:21:17.507Z,0.90
2022-08-07T01:23:51.643Z,1.20
2022-08-07T01:26:22.656Z,0.65
2022-08-07T01:28:56.143Z,1.00
2022-08-07T01:31:42.787Z,0.88
2022-08-07T01:34:17.206Z,0.65
2022-08-07T01:36:45.065Z,0.90
2022-08-07T01:39:20.264Z,0.70
2022-08-07T01:42:07.578Z,0.73
2022-08-07T01:44:35.514Z,0.90
2022-08-07T01:48:17.810Z,1.27
2022-08-07T01:49:54.666Z,1.00
2022-08-07T01:52:27.149Z,1.10
2022-08-07T01:54:56.809Z,0.70
2022-08-07T01:57:30.542Z,0.90
2022-08-07T02:00:28.609Z,1.00
2022-08-07T02:03:15.952Z,0.80
2022-08-07T02:05:59.590Z,0.80
2022-08-07T02:08:29.617Z,1.17
2022-08-07T02:11:03.394Z,0.85
2022-08-07T02:13:57.713Z,1.02
2022-08-07T02:16:28.347Z,0.80
2022-08-07T02:20:05.818Z,0.70
2022-08-07T02:22:14.541Z,0.90
2022-08-07T02:24:48.587Z,0.98
2022-08-07T02:27:19.484Z,0.80
2022-08-07T02:29:54.581Z,0.85
2022-08-07T02:32:29.820Z,0.85
2022-08-07T02:35:00.819Z,1.20
2022-08-07T02:37:35.973Z,1.10
2022-08-07T02:40:30.673Z,0.93
2022-08-07T02:43:02.006Z,1.08
2022-08-07T02:45:59.025Z,0.90
2022-08-07T02:48:26.298Z,0.80
2022-08-07T02:50:56.537Z,0.95
2022-08-07T02:53:28.386Z,0.82
2022-08-07T02:56:03.055Z,0.85
2022-08-07T02:58:34.414Z,0.95
2022-08-07T03:01:03.610Z,0.80
2022-08-07T03:03:49.400Z,1.05
2022-08-07T03:06:25.888Z,0.85
2022-08-07T03:09:02.662Z,0.90
2022-08-07T03:11:38.715Z,0.70
2022-08-07T03:14:07.051Z,0.70
2022-08-07T03:16:36.019Z,0.60
2022-08-07T03:19:05.958Z,0.60
2022-08-07T03:21:33.458Z,0.77
2022-08-07T03:24:18.410Z,0.70
2022-08-07T03:26:58.854Z,0.70
2022-08-07T03:29:33.698Z,0.45
2022-08-07T03:32:25.926Z,0.57
2022-08-07T03:35:16.792Z,0.82
2022-08-07T03:37:55.252Z,0.90
2022-08-07T03:40:31.195Z,0.65
2022-08-07T03:43:05.167Z,0.85
2022-08-07T03:45:43.436Z,0.50
2022-08-07T03:48:15.124Z,1.00
2022-08-07T03:50:55.867Z,0.95
2022-08-07T03:54:00.586Z,0.60
2022-08-07T03:56:33.509Z,0.70
2022-08-07T03:59:07.888Z,1.10
2022-08-07T04:01:45.256Z,1.02
2022-08-07T04:04:17.171Z,0.70
2022-08-07T04:06:45.751Z,1.00
2022-08-07T04:09:15.867Z,0.98
2022-08-07T04:12:26.775Z,0.82
2022-08-07T04:14:37.561Z,0.65
2022-08-07T04:17:20.603Z,1.00
2022-08-07T04:19:58.927Z,0.80
2022-08-07T04:22:27.611Z,1.05
2022-08-07T04:24:58.102Z,1.23
2022-08-07T04:27:27.820Z,0.70
2022-08-07T04:30:02.054Z,0.90
2022-08-07T04:35:22.247Z,0.65
2022-08-07T04:38:03.537Z,0.98
2022-08-07T04:40:35.370Z,0.68
2022-08-07T04:43:03.215Z,0.88
2022-08-07T04:46:00.517Z,0.90
2022-08-07T04:48:50.866Z,1.00
2022-08-07T04:51:41.596Z,0.90
2022-08-07T04:54:30.318Z,0.82
2022-08-07T04:58:14.033Z,1.25
2022-08-07T05:00:18.836Z,0.90
2022-08-07T05:03:17.294Z,0.82
2022-08-07T05:06:23.030Z,0.82
2022-08-07T06:03:53.926Z,1.00
2022-08-07T06:06:18.965Z,1.17
2022-08-07T06:08:51.577Z,1.05
2022-08-07T06:11:18.935Z,1.88
2022-08-07T06:14:11.546Z,1.33
2022-08-07T06:16:36.147Z,1.13
2022-08-07T06:19:06.644Z,1.20
2022-08-07T06:22:14.759Z,1.13
2022-08-07T06:24:52.316Z,1.30
2022-08-07T06:27:11.485Z,1.08
2022-08-07T06:29:50.716Z,1.27
2022-08-07T06:32:18.101Z,1.23
2022-08-07T06:34:45.834Z,1.42
2022-08-07T06:37:17.324Z,1.77
2022-08-07T06:40:12.913Z,1.30
2022-08-07T06:42:42.961Z,1.35
2022-08-07T06:45:22.763Z,1.60
2022-08-07T06:47:58.483Z,1.90
2022-08-07T06:50:27.824Z,1.42
2022-08-07T06:52:58.835Z,1.85
2022-08-07T06:55:52.651Z,1.42
2022-08-07T06:58:21.474Z,1.30
2022-08-07T07:00:53.303Z,1.90
2022-08-07T07:03:39.741Z,1.10
2022-08-07T07:06:13.520Z,1.20
2022-08-07T07:08:51.306Z,1.38
2022-08-07T07:12:07.589Z,1.30
2022-08-07T07:14:10.553Z,1.50
2022-08-07T07:16:49.669Z,1.20
2022-08-07T07:19:55.653Z,1.13
2022-08-07T07:22:36.621Z,1.20
2022-08-07T07:26:31.358Z,1.33
2022-08-07T07:28:29.601Z,1.77
2022-08-07T07:31:17.243Z,1.30
2022-08-07T07:33:56.897Z,1.50
2022-08-07T07:36:32.368Z,1.80
2022-08-07T07:39:01.768Z,1.48
2022-08-07T07:42:01.885Z,1.30
2022-08-07T07:44:26.481Z,1.73
2022-08-07T07:47:04.344Z,2.20
2022-08-07T07:50:32.444Z,1.60
2022-08-07T07:52:37.465Z,1.83
2022-08-07T07:55:11.065Z,1.58
2022-08-07T07:57:52.082Z,1.58
2022-08-07T08:00:29.127Z,1.88
2022-08-07T08:04:06.203Z,1.75
2022-08-07T08:06:12.993Z,1.70
2022-08-07T08:08:48.456Z,2.50
2022-08-07T08:11:18.128Z,2.08
2022-08-07T08:14:04.804Z,1.95
2022-08-07T08:16:50.445Z,1.90
2022-08-07T08:20:18.463Z,2.00
2022-08-07T08:22:32.890Z,1.50
2022-08-07T08:25:41.786Z,1.50
2022-08-07T08:28:38.082Z,1.90
2022-08-07T08:33:49.467Z,1.45
2022-08-07T08:36:33.740Z,2.10
2022-08-07T08:39:06.484Z,2.22
2022-08-07T08:41:58.386Z,2.00
2022-08-07T08:44:44.519Z,2.13
2022-08-07T08:47:52.941Z,1.65
2022-08-07T08:50:38.845Z,2.00
2022-08-07T08:53:31.738Z,1.52
2022-08-07T08:56:04.704Z,2.10
2022-08-07T08:58:54.795Z,1.67
2022-08-07T09:01:43.994Z,2.28
2022-08-07T09:04:34.609Z,1.42
2022-08-07T09:07:23.018Z,2.05
2022-08-07T09:10:06.706Z,1.75
2022-08-07T09:13:14.983Z,1.48
2022-08-07T09:16:25.761Z,1.40
2022-08-07T09:19:03.398Z,1.85
2022-08-07T09:24:28.121Z,1.75
2022-08-07T09:25:17.977Z,1.23
2022-08-07T09:30:00.763Z,1.40
2022-08-07T09:31:00.744Z,1.60
2022-08-07T09:36:42.924Z,1.50
2022-08-07T09:42:22.923Z,1.70
2022-08-07T09:47:50.580Z,1.40
2022-08-07T09:48:56.232Z,1.35
2022-08-07T09:52:15.196Z,1.60
2022-08-07T09:54:38.692Z,1.60
2022-08-07T09:57:30.248Z,1.77
2022-08-07T10:00:09.205Z,1.55
2022-08-07T10:03:08.446Z,1.20
2022-08-07T10:06:03.536Z,1.60
2022-08-07T10:09:15.198Z,1.40
2022-08-07T10:12:11.866Z,1.70
2022-08-07T10:15:15.164Z,1.95
2022-08-07T10:18:36.581Z,1.80
2022-08-07T10:22:15.134Z,1.70
2022-08-07T10:24:25.982Z,1.55
2022-08-07T10:27:30.254Z,1.35
2022-08-07T10:30:20.026Z,1.50
2022-08-07T10:33:17.496Z,2.20
2022-08-07T10:36:12.852Z,1.67
2022-08-07T10:39:12.845Z,1.20
2022-08-07T10:41:54.496Z,1.40
2022-08-07T10:44:50.179Z,1.60
2022-08-07T10:47:52.657Z,1.38
2022-08-07T10:50:34.351Z,1.45
2022-08-07T10:53:13.247Z,1.27
2022-08-07T10:56:11.183Z,1.40
2022-08-07T10:59:37.305Z,1.70
2022-08-07T11:02:33.498Z,1.83
2022-08-07T11:05:48.868Z,1.65
2022-08-07T11:08:58.914Z,1.70
2022-08-07T11:11:42.742Z,1.77
2022-08-07T11:14:45.905Z,1.25
2022-08-07T11:17:43.136Z,1.77
2022-08-07T11:20:24.667Z,1.20
2022-08-07T11:23:20.479Z,1.35
2022-08-07T11:26:17.349Z,1.55
2022-08-07T11:31:34.874Z,1.75
2022-08-07T11:34:29.510Z,1.50
2022-08-07T11:37:13.466Z,1.65
2022-08-07T11:40:04.627Z,1.10
2022-08-07T11:42:36.763Z,1.50
2022-08-07T12:50:49.683Z,1.50
2022-08-07T12:53:29.676Z,1.23
2022-08-07T12:56:39.706Z,1.48
2022-08-07T12:59:08.956Z,1.80
2022-08-07T13:02:16.128Z,1.50
2022-08-07T13:06:04.043Z,1.42
2022-08-07T13:08:38.902Z,1.70
2022-08-07T13:11:16.290Z,1.40
2022-08-07T13:14:03.538Z,1.60
2022-08-07T13:16:51.121Z,1.70
2022-08-07T13:19:45.784Z,1.70
2022-08-07T13:22:33.316Z,1.40
2022-08-07T13:25:09.500Z,1.23
2022-08-07T13:28:10.828Z,1.25
2022-08-07T13:30:48.949Z,1.38
2022-08-07T13:34:34.090Z,1.50
2022-08-07T13:36:33.388Z,1.20
2022-08-07T13:39:28.720Z,1.40
2022-08-07T13:42:19.252Z,1.40
2022-08-07T13:44:55.437Z,1.35
2022-08-07T13:48:05.256Z,1.55
2022-08-07T13:50:44.000Z,1.70
2022-08-07T13:53:24.022Z,1.80
2022-08-07T13:55:54.573Z,2.13
2022-08-07T13:58:50.472Z,2.00
2022-08-07T14:01:26.893Z,1.38
2022-08-07T14:04:07.266Z,1.25
2022-08-07T14:06:38.575Z,1.50
2022-08-07T14:10:02.889Z,1.63
2022-08-07T14:12:31.158Z,1.20
2022-08-07T14:15:10.056Z,1.20
2022-08-07T14:18:12.931Z,1.23
2022-08-07T14:20:41.829Z,1.30
2022-08-07T14:23:59.932Z,1.60
2022-08-07T14:26:29.721Z,1.48
2022-08-07T14:29:07.656Z,1.20
2022-08-07T14:31:57.740Z,1.40
2022-08-07T14:34:30.097Z,1.40
2022-08-07T14:37:04.190Z,1.40
2022-08-07T14:40:17.799Z,1.30
2022-08-07T14:42:31.426Z,1.45
2022-08-07T14:45:21.310Z,1.67
2022-08-07T14:50:44.928Z,1.75
2022-08-07T14:53:13.871Z,1.80
2022-08-07T14:55:55.680Z,1.77
2022-08-07T14:58:32.071Z,2.40
2022-08-07T15:01:21.468Z,1.60
2022-08-07T15:03:52.588Z,1.63
2022-08-07T15:06:29.989Z,1.50
2022-08-07T15:10:00.000Z,2.08
2022-08-07T15:12:26.233Z,1.30
2022-08-07T15:15:33.161Z,1.77
2022-08-07T15:21:08.376Z,2.08
2022-08-07T15:26:55.046Z,1.40
2022-08-07T15:30:09.681Z,1.48
2022-08-07T15:32:13.305Z,1.50
2022-08-07T15:34:56.936Z,1.48
2022-08-07T15:37:27.382Z,1.50
2022-08-07T15:39:59.027Z,1.60
2022-08-07T15:45:25.276Z,1.80
2022-08-07T15:48:20.532Z,1.55
2022-08-07T15:51:08.250Z,1.65
2022-08-07T15:53:52.252Z,1.65
2022-08-07T15:56:33.094Z,2.00
2022-08-07T15:59:16.381Z,2.05
2022-08-07T16:02:01.669Z,2.30
2022-08-07T16:04:32.706Z,2.63
2022-08-07T16:08:30.907Z,3.10
2022-08-07T16:10:25.207Z,2.60
2022-08-07T16:13:05.523Z,3.10
2022-08-07T16:16:48.445Z,3.37
2022-08-07T16:19:41.892Z,3.60
2022-08-07T16:22:55.804Z,2.92
2022-08-07T16:25:54.792Z,3.58
2022-08-07T16:30:07.832Z,3.95
2022-08-07T16:31:51.197Z,3.60
2022-08-07T16:34:28.111Z,3.28
2022-08-07T16:38:04.364Z,4.30
2022-08-07T16:40:28.089Z,3.78
2022-08-07T16:44:02.749Z,4.32
2022-08-07T16:47:05.730Z,4.07
2022-08-07T16:50:28.320Z,4.20
2022-08-07T16:53:48.187Z,4.80
2022-08-07T16:56:14.793Z,4.40
2022-08-07T16:59:14.751Z,4.93
2022-08-07T17:02:52.957Z,4.82
2022-08-07T17:06:28.440Z,4.30
2022-08-07T17:09:08.764Z,5.30
2022-08-07T17:12:01.786Z,4.70
2022-08-07T17:14:59.746Z,4.40
2022-08-07T17:17:46.810Z,4.82
2022-08-07T17:20:20.655Z,4.80
2022-08-07T17:23:11.407Z,4.68
2022-08-07T17:26:05.266Z,4.90
2022-08-07T17:28:52.850Z,5.25
2022-08-07T17:31:44.271Z,4.85
2022-08-07T17:38:06.571Z,5.35
2022-08-07T17:40:50.414Z,4.90
2022-08-07T17:44:00.840Z,5.40
2022-08-07T17:46:54.335Z,5.40
2022-08-07T17:49:44.503Z,5.40
2022-08-07T17:52:36.795Z,5.20
2022-08-07T17:55:55.972Z,5.60
2022-08-07T17:58:30.521Z,5.53
2022-08-07T18:01:02.983Z,5.10
2022-08-07T18:04:07.102Z,6.10
2022-08-07T18:07:20.816Z,6.15
2022-08-07T18:10:07.499Z,4.57
2022-08-07T18:13:02.931Z,4.90
2022-08-07T18:16:05.454Z,5.03
2022-08-07T18:21:03.287Z,4.50
2022-08-07T18:24:35.449Z,4.43
2022-08-07T18:27:17.408Z,4.82
2022-08-07T18:30:07.919Z,4.30
2022-08-07T18:33:16.656Z,5.30
2022-08-07T18:36:33.445Z,4.63
2022-08-07T18:40:07.322Z,4.63
2022-08-07T18:42:44.993Z,4.97
2022-08-07T18:45:43.047Z,4.50
2022-08-07T18:48:52.141Z,4.53
2022-08-07T18:52:34.210Z,4.97
2022-08-07T18:54:39.040Z,5.30
2022-08-07T18:57:31.475Z,4.90
2022-08-07T19:00:33.220Z,4.85
2022-08-07T19:03:37.586Z,5.10
2022-08-07T19:06:16.599Z,4.88
2022-08-07T19:08:52.161Z,5.50
2022-08-07T19:14:20.611Z,4.88
2022-08-07T19:17:06.514Z,4.60
2022-08-07T19:19:53.881Z,4.47
2022-08-07T19:22:30.757Z,4.28
2022-08-07T19:25:05.524Z,3.70
2022-08-07T19:28:57.683Z,4.63
2022-08-07T19:31:02.070Z,4.13
2022-08-07T19:33:33.655Z,4.60
2022-08-07T19:36:03.527Z,4.57
2022-08-07T19:38:34.241Z,4.47
2022-08-07T19:41:06.739Z,4.13
2022-08-07T19:43:48.889Z,4.78
2022-08-07T19:46:26.466Z,3.63
2022-08-07T19:49:56.650Z,4.35
2022-08-07T19:52:18.062Z,3.88
2022-08-07T19:58:01.762Z,4.45
2022-08-07T20:00:36.665Z,4.47
2022-08-07T20:03:33.558Z,4.18
2022-08-07T20:06:00.351Z,4.97
2022-08-07T20:08:32.515Z,4.45
2022-08-07T20:11:09.989Z,4.20
2022-08-07T20:13:55.256Z,4.35
2022-08-07T20:16:35.093Z,4.30
2022-08-07T20:19:10.514Z,4.40
2022-08-07T20:21:47.732Z,4.50
2022-08-07T20:24:22.943Z,4.82
2022-08-07T20:26:54.379Z,5.35
2022-08-07T20:29:49.050Z,4.72
2022-08-07T20:32:22.628Z,4.53
2022-08-07T20:34:57.158Z,4.68
2022-08-07T20:37:33.998Z,4.68
2022-08-07T20:40:05.297Z,4.43
2022-08-07T20:42:56.754Z,5.20
2022-08-07T20:45:32.840Z,4.78
2022-08-07T20:48:28.384Z,4.80
2022-08-07T20:51:00.264Z,5.18
2022-08-07T20:54:02.858Z,4.57
2022-08-07T20:56:16.802Z,5.40
2022-08-07T20:58:58.877Z,5.47
2022-08-07T21:06:42.473Z,5.43
2022-08-07T21:09:24.492Z,5.05
2022-08-07T21:11:57.787Z,4.68
2022-08-07T21:14:34.231Z,4.93
2022-08-07T21:18:20.848Z,5.28
2022-08-07T21:20:04.833Z,5.35
2022-08-07T21:22:39.970Z,4.88
2022-08-07T21:25:18.130Z,4.88
2022-08-07T21:28:18.855Z,4.88
2022-08-07T21:31:20.985Z,4.97
2022-08-07T21:34:12.744Z,4.85
2022-08-07T21:36:52.949Z,4.93
2022-08-07T21:39:45.251Z,5.43
2022-08-07T21:46:04.844Z,5.20
2022-08-07T21:48:48.124Z,5.00
2022-08-07T21:51:31.992Z,4.38
2022-08-07T21:54:32.291Z,4.85
2022-08-07T21:57:31.625Z,4.72
2022-08-07T22:00:22.470Z,4.75
2022-08-07T22:03:16.782Z,4.45
2022-08-07T22:05:51.555Z,4.10
2022-08-07T22:08:31.988Z,5.20
2022-08-07T22:11:02.629Z,4.53
2022-08-07T22:13:50.996Z,4.78
2022-08-07T22:16:49.372Z,5.13
2022-08-07T22:19:38.632Z,4.32
2022-08-07T22:22:21.445Z,4.32
2022-08-07T22:25:07.645Z,4.07
2022-08-07T22:28:07.753Z,4.35
2022-08-07T22:31:45.193Z,4.10
2022-08-07T22:34:15.407Z,4.10
2022-08-07T22:37:19.325Z,4.05
2022-08-07T22:40:05.395Z,4.43
2022-08-07T22:42:35.456Z,3.90
2022-08-07T22:45:11.048Z,3.97
2022-08-07T22:48:01.171Z,3.65
2022-08-07T22:50:38.184Z,3.63
2022-08-07T22:53:15.126Z,3.75
2022-08-07T22:56:09.684Z,3.50
2022-08-07T22:58:58.000Z,3.60
2022-08-07T23:01:53.489Z,3.80
2022-08-07T23:06:08.312Z,4.10
2022-08-07T23:08:38.139Z,3.60
2022-08-07T23:11:41.593Z,3.67
2022-08-07T23:14:30.816Z,3.78
2022-08-07T23:17:20.142Z,3.40
2022-08-07T23:20:18.168Z,3.33
2022-08-07T23:24:04.088Z,3.15
2022-08-07T23:26:13.809Z,4.35
2022-08-07T23:29:42.642Z,3.10
2022-08-07T23:34:20.773Z,3.60
2022-08-07T23:35:38.162Z,3.35
2022-08-07T23:38:10.810Z,3.30
2022-08-07T23:40:53.194Z,2.97
2022-08-07T23:43:44.966Z,3.40
2022-08-07T23:46:36.909Z,3.40
2022-08-07T23:49:49.911Z,3.30
2022-08-07T23:53:02.158Z,3.05
2022-08-07T23:55:52.168Z,3.63
2022-08-07T23:58:43.269Z,3.88
